Time;durP1;ratioP1;P1;durP2;ratioP2;P2;SDS_P1;SDS_P2;PMS_P1;PMS_P2;Temp;Humidity;BMP_temperature;BMP_pressure;BME280_temperature;BME280_humidity;BME280_pressure;Samples;Min_cycle;Max_cycle;Signal;HPM_P1;HPM_P2
2022/03/26 00:01:49;;;;;;;109.17;57.27;;;8.20;99.90;;;;;;4917163;29;20241;-64
2022/03/26 00:04:17;;;;;;;102.27;58.13;;;8.20;99.90;;;;;;4922380;29;20247;-64
2022/03/26 00:06:47;;;;;;;94.23;51.03;;;8.10;99.90;;;;;;4933433;29;20728;-64
2022/03/26 00:09:15;;;;;;;111.13;60.00;;;8.20;99.90;;;;;;4933270;29;20331;-64
2022/03/26 00:11:44;;;;;;;106.90;57.30;;;8.10;99.90;;;;;;4933149;29;20302;-64
2022/03/26 00:14:12;;;;;;;105.97;58.60;;;8.00;99.90;;;;;;4933286;29;20262;-64
2022/03/26 00:16:40;;;;;;;91.10;50.10;;;7.90;99.90;;;;;;4923983;29;20323;-64
2022/03/26 00:19:09;;;;;;;95.23;50.53;;;8.00;99.90;;;;;;4914343;29;20616;-64
2022/03/26 00:21:37;;;;;;;100.67;54.17;;;8.10;99.90;;;;;;4914373;29;20327;-64
2022/03/26 00:24:07;;;;;;;98.90;53.07;;;8.10;99.90;;;;;;4914560;29;20225;-64
2022/03/26 00:26:35;;;;;;;93.00;52.70;;;8.00;99.90;;;;;;4914163;29;20311;-64
2022/03/26 00:29:03;;;;;;;106.63;57.93;;;8.10;99.90;;;;;;4919977;29;20243;-64
2022/03/26 00:31:33;;;;;;;101.70;54.80;;;8.00;99.90;;;;;;4916176;29;20247;-64
2022/03/26 00:34:01;;;;;;;109.03;59.43;;;7.90;99.90;;;;;;4927700;29;20244;-64
2022/03/26 00:36:29;;;;;;;109.10;59.50;;;7.80;99.90;;;;;;4914180;29;20245;-64
2022/03/26 00:38:57;;;;;;;114.53;60.20;;;7.80;99.90;;;;;;4919021;29;20240;-64
2022/03/26 00:41:28;;;;;;;111.27;59.27;;;7.80;99.90;;;;;;4920253;29;20307;-64
2022/03/26 00:43:57;;;;;;;103.40;56.70;;;7.80;99.90;;;;;;4914061;29;20267;-64
2022/03/26 00:46:25;;;;;;;94.53;52.20;;;7.70;99.90;;;;;;4913859;29;20331;-64
2022/03/26 00:48:56;;;;;;;105.90;58.57;;;7.80;99.90;;;;;;4914187;29;20248;-64
2022/03/26 00:51:24;;;;;;;98.10;53.20;;;7.70;99.90;;;;;;4914051;29;20271;-64
2022/03/26 00:53:52;;;;;;;112.40;61.37;;;7.70;99.90;;;;;;4918265;29;20252;-64
2022/03/26 00:56:20;;;;;;;113.70;58.67;;;7.70;99.90;;;;;;4932937;29;20251;-64
2022/03/26 00:58:50;;;;;;;107.43;59.07;;;7.70;99.90;;;;;;4924495;29;20327;-64
2022/03/26 01:01:18;;;;;;;109.37;57.87;;;7.60;99.90;;;;;;4930839;29;20239;-64
2022/03/26 01:03:46;;;;;;;106.13;56.93;;;7.60;99.90;;;;;;4928865;29;20260;-64
2022/03/26 01:06:15;;;;;;;114.57;60.67;;;7.60;99.90;;;;;;4914146;29;20298;-64
2022/03/26 01:08:43;;;;;;;92.60;51.07;;;7.50;99.90;;;;;;4914397;29;20247;-64
2022/03/26 01:11:11;;;;;;;112.77;61.80;;;7.60;99.90;;;;;;4914127;29;20248;-64
2022/03/26 01:13:39;;;;;;;93.47;51.63;;;7.70;99.90;;;;;;4916939;29;20335;-64
2022/03/26 01:16:09;;;;;;;94.43;51.00;;;7.70;99.90;;;;;;4917852;29;20324;-65
2022/03/26 01:18:37;;;;;;;106.93;57.20;;;7.70;99.90;;;;;;4921476;29;20290;-64
2022/03/26 01:21:05;;;;;;;102.30;56.43;;;7.70;99.90;;;;;;4926536;29;20236;-64
2022/03/26 01:23:34;;;;;;;100.43;57.03;;;7.70;99.90;;;;;;4917327;29;20244;-64
2022/03/26 01:26:02;;;;;;;96.23;53.80;;;7.60;99.90;;;;;;4917489;29;20236;-64
2022/03/26 01:28:31;;;;;;;101.50;55.47;;;7.70;99.90;;;;;;4918620;29;20233;-64
2022/03/26 01:31:00;;;;;;;94.50;52.77;;;7.60;99.90;;;;;;4936328;29;20251;-64
2022/03/26 01:33:30;;;;;;;88.67;50.33;;;7.50;99.90;;;;;;4934752;29;20750;-64
2022/03/26 01:35:58;;;;;;;96.97;53.57;;;7.60;99.90;;;;;;4917528;29;20609;-64
2022/03/26 01:38:26;;;;;;;103.83;55.80;;;7.60;99.90;;;;;;4916966;29;20244;-64
2022/03/26 01:40:54;;;;;;;88.37;49.90;;;7.50;99.90;;;;;;4916937;29;20228;-64
2022/03/26 01:43:22;;;;;;;84.13;47.70;;;7.50;99.90;;;;;;4917605;29;20254;-64
2022/03/26 01:45:50;;;;;;;87.13;49.17;;;7.60;99.90;;;;;;4936185;29;20240;-64
2022/03/26 01:48:19;;;;;;;94.93;54.10;;;7.60;99.90;;;;;;4936016;29;20263;-64
2022/03/26 01:50:48;;;;;;;89.50;52.40;;;7.50;99.90;;;;;;4935838;29;20712;-64
2022/03/26 01:53:16;;;;;;;90.83;50.43;;;7.50;99.90;;;;;;4935707;29;20323;-64
2022/03/26 01:55:44;;;;;;;90.97;49.63;;;7.50;99.90;;;;;;4935989;29;20724;-64
2022/03/26 01:58:13;;;;;;;92.67;53.03;;;7.40;99.90;;;;;;4935929;29;20727;-64
2022/03/26 02:00:41;;;;;;;93.40;51.83;;;7.40;99.90;;;;;;4928752;29;20736;-64
2022/03/26 02:03:10;;;;;;;81.73;44.97;;;7.40;99.90;;;;;;4916730;29;20243;-64
2022/03/26 02:05:38;;;;;;;96.80;52.77;;;7.50;99.90;;;;;;4916517;29;20262;-64
2022/03/26 02:08:08;;;;;;;88.57;50.17;;;7.50;99.90;;;;;;4916795;29;20292;-64
2022/03/26 02:10:36;;;;;;;91.17;51.50;;;7.40;99.90;;;;;;4918289;29;20236;-64
2022/03/26 02:13:05;;;;;;;79.47;45.60;;;7.30;99.90;;;;;;4916935;29;20245;-64
2022/03/26 02:15:33;;;;;;;81.37;45.47;;;7.30;99.90;;;;;;4933850;29;20656;-64
2022/03/26 02:18:01;;;;;;;81.83;46.60;;;7.30;99.90;;;;;;4935561;29;20735;-64
2022/03/26 02:20:31;;;;;;;84.63;48.07;;;7.40;99.90;;;;;;4927819;29;20231;-64
2022/03/26 02:23:01;;;;;;;93.23;51.57;;;7.50;99.90;;;;;;4916429;29;20240;-64
2022/03/26 02:25:29;;;;;;;82.70;44.77;;;7.40;99.90;;;;;;4932483;29;20243;-64
2022/03/26 02:27:58;;;;;;;94.53;50.33;;;7.40;99.90;;;;;;4917909;29;20232;-64
2022/03/26 02:30:26;;;;;;;85.43;47.33;;;7.30;99.90;;;;;;4932442;29;20299;-64
2022/03/26 02:32:54;;;;;;;93.97;51.43;;;7.20;99.90;;;;;;4935179;29;20716;-64
2022/03/26 02:35:22;;;;;;;93.83;52.30;;;7.20;99.90;;;;;;4935171;29;20299;-64
2022/03/26 02:37:52;;;;;;;90.00;50.97;;;7.20;99.90;;;;;;4935226;29;20239;-64
2022/03/26 02:40:20;;;;;;;98.10;52.57;;;7.20;99.90;;;;;;4919223;29;20240;-63
2022/03/26 02:42:48;;;;;;;92.73;51.53;;;7.00;99.90;;;;;;4915923;29;20241;-64
2022/03/26 02:45:17;;;;;;;101.97;54.83;;;7.00;99.90;;;;;;4916470;29;20274;-63
2022/03/26 02:47:45;;;;;;;94.80;52.10;;;7.00;99.90;;;;;;4915937;29;20660;-64
2022/03/26 02:50:13;;;;;;;89.47;48.30;;;7.10;99.90;;;;;;4930802;29;20867;-64
2022/03/26 02:52:41;;;;;;;93.47;50.27;;;7.10;99.90;;;;;;4934838;29;20228;-64
2022/03/26 02:55:11;;;;;;;94.43;52.10;;;7.10;99.90;;;;;;4934797;29;20720;-63
2022/03/26 02:57:39;;;;;;;90.80;51.17;;;7.20;99.90;;;;;;4934633;29;20258;-63
2022/03/26 03:00:13;;;;;;;100.90;54.63;;;7.20;99.90;;;;;;4932161;29;20240;-63
2022/03/26 03:02:43;;;;;;;90.03;50.23;;;7.00;99.90;;;;;;4915484;29;20246;-64
2022/03/26 03:05:12;;;;;;;107.83;58.73;;;7.10;99.90;;;;;;4930446;29;20579;-64
2022/03/26 03:07:40;;;;;;;97.53;52.40;;;7.00;99.90;;;;;;4934308;29;20236;-64
2022/03/26 03:10:10;;;;;;;99.50;54.87;;;7.00;99.90;;;;;;4919871;29;20668;-63
2022/03/26 03:12:39;;;;;;;110.60;59.30;;;7.10;99.90;;;;;;4915393;29;20249;-63
2022/03/26 03:15:08;;;;;;;107.33;57.93;;;7.00;99.90;;;;;;4929569;29;20323;-63
2022/03/26 03:17:38;;;;;;;110.10;59.53;;;7.10;99.90;;;;;;4934387;29;20246;-64
2022/03/26 03:20:07;;;;;;;103.50;57.37;;;7.10;99.90;;;;;;4931864;29;20240;-63
2022/03/26 03:22:36;;;;;;;118.53;61.73;;;7.00;99.90;;;;;;4915167;29;20250;-63
2022/03/26 03:25:04;;;;;;;107.90;59.53;;;7.00;99.90;;;;;;4915385;29;20292;-64
2022/03/26 03:27:33;;;;;;;119.27;63.87;;;6.90;99.90;;;;;;4915118;29;20239;-63
2022/03/26 03:30:03;;;;;;;98.57;54.80;;;7.00;99.90;;;;;;4928445;29;20325;-64
2022/03/26 03:32:31;;;;;;;97.47;54.97;;;7.10;99.90;;;;;;4934090;29;20232;-64
2022/03/26 03:34:59;;;;;;;110.80;60.87;;;7.10;99.90;;;;;;4920731;29;20256;-64
2022/03/26 03:37:27;;;;;;;98.37;53.40;;;7.00;99.90;;;;;;4914186;29;20244;-63
2022/03/26 03:39:57;;;;;;;110.93;58.93;;;7.10;99.90;;;;;;4921492;29;20273;-63
2022/03/26 03:42:25;;;;;;;108.07;57.03;;;7.00;99.90;;;;;;4914925;29;20237;-64
2022/03/26 03:44:53;;;;;;;118.97;64.43;;;7.00;99.90;;;;;;4927048;29;20240;-63
2022/03/26 03:47:23;;;;;;;123.40;67.90;;;7.00;99.90;;;;;;4933839;29;20243;-64
2022/03/26 03:49:51;;;;;;;121.37;65.80;;;6.90;99.90;;;;;;4921750;29;20243;-64
2022/03/26 03:52:19;;;;;;;102.30;56.27;;;6.70;99.90;;;;;;4914974;29;20252;-64
2022/03/26 03:54:47;;;;;;;101.87;54.40;;;6.70;99.90;;;;;;4926479;29;20231;-64
2022/03/26 03:57:15;;;;;;;120.97;62.67;;;6.90;99.90;;;;;;4933978;29;20264;-64
2022/03/26 03:59:44;;;;;;;119.80;61.13;;;6.70;99.90;;;;;;4922513;29;20241;-64
2022/03/26 04:02:12;;;;;;;124.60;66.87;;;6.80;99.90;;;;;;4914513;29;20240;-64
2022/03/26 04:04:42;;;;;;;107.97;58.00;;;6.70;99.90;;;;;;4924995;29;20239;-63
2022/03/26 04:07:11;;;;;;;126.80;68.70;;;6.70;99.90;;;;;;4933872;29;20322;-63
2022/03/26 04:09:39;;;;;;;127.33;69.40;;;6.70;99.90;;;;;;4925786;29;20247;-63
2022/03/26 04:12:08;;;;;;;119.00;59.97;;;6.70;99.90;;;;;;4914564;29;20248;-63
2022/03/26 04:14:43;;;;;;;116.17;62.10;;;6.70;99.90;;;;;;4914202;29;20240;-64
2022/03/26 04:17:12;;;;;;;132.67;70.30;;;6.80;99.90;;;;;;4914397;29;20255;-64
2022/03/26 04:19:42;;;;;;;125.00;65.83;;;6.70;99.90;;;;;;4926244;29;20246;-64
2022/03/26 04:22:10;;;;;;;136.33;72.37;;;6.70;99.90;;;;;;4914888;29;20571;-63
2022/03/26 04:24:40;;;;;;;130.40;68.73;;;6.60;99.90;;;;;;4924271;29;20303;-64
2022/03/26 04:27:08;;;;;;;124.10;65.67;;;6.60;99.90;;;;;;4933468;29;20255;-63
2022/03/26 04:29:36;;;;;;;134.37;70.43;;;6.60;99.90;;;;;;4923127;29;20713;-64
2022/03/26 04:32:05;;;;;;;133.30;71.37;;;6.60;99.90;;;;;;4914347;29;20256;-63
2022/03/26 04:34:35;;;;;;;132.30;69.53;;;6.50;99.90;;;;;;4914112;29;20688;-63
2022/03/26 04:37:05;;;;;;;142.70;74.60;;;6.50;99.90;;;;;;4914071;29;20247;-63
2022/03/26 04:39:34;;;;;;;129.00;69.77;;;6.50;99.90;;;;;;4923272;29;20449;-63
2022/03/26 04:42:02;;;;;;;138.07;73.47;;;6.40;99.90;;;;;;4915929;29;20252;-64
2022/03/26 04:44:30;;;;;;;141.03;75.50;;;6.40;99.90;;;;;;4923141;29;20234;-64
2022/03/26 04:46:59;;;;;;;136.03;72.43;;;6.40;99.90;;;;;;4933677;29;20259;-64
2022/03/26 04:49:27;;;;;;;124.90;66.10;;;6.40;99.90;;;;;;4936806;29;20283;-63
2022/03/26 04:51:55;;;;;;;144.13;74.63;;;6.40;99.90;;;;;;4937066;29;20314;-63
2022/03/26 04:54:24;;;;;;;146.27;73.07;;;6.40;99.90;;;;;;4936851;29;20243;-64
2022/03/26 04:56:53;;;;;;;138.87;72.60;;;6.40;99.90;;;;;;4937125;29;20603;-63
2022/03/26 04:59:21;;;;;;;138.67;69.60;;;6.30;99.90;;;;;;4928805;29;20599;-63
2022/03/26 05:01:49;;;;;;;131.63;70.90;;;6.30;99.90;;;;;;4904007;29;20244;-63
2022/03/26 05:04:17;;;;;;;132.67;70.43;;;6.30;99.90;;;;;;4918319;29;20592;-64
2022/03/26 05:06:45;;;;;;;137.37;73.13;;;6.30;99.90;;;;;;4917723;29;20248;-63
2022/03/26 05:09:13;;;;;;;118.83;61.80;;;6.30;99.90;;;;;;4917160;29;20240;-64
2022/03/26 05:11:43;;;;;;;141.30;75.37;;;6.40;99.90;;;;;;4917566;29;20243;-64
2022/03/26 05:14:11;;;;;;;141.00;72.67;;;6.40;99.90;;;;;;4924150;29;20326;-63
2022/03/26 05:16:39;;;;;;;134.97;70.23;;;6.40;99.90;;;;;;4936378;29;20771;-64
2022/03/26 05:19:07;;;;;;;120.90;62.37;;;6.40;99.90;;;;;;4930233;29;20268;-64
2022/03/26 05:21:37;;;;;;;143.43;72.97;;;6.60;99.90;;;;;;4917348;29;20307;-64
2022/03/26 05:24:06;;;;;;;136.23;71.70;;;6.50;99.90;;;;;;4917765;29;20327;-64
2022/03/26 05:26:34;;;;;;;133.63;69.63;;;6.40;99.90;;;;;;4914785;29;20243;-64
2022/03/26 05:29:04;;;;;;;134.00;70.10;;;6.40;99.90;;;;;;4916926;29;20657;-63
2022/03/26 05:31:32;;;;;;;148.03;73.20;;;6.40;99.90;;;;;;4914400;29;20600;-63
2022/03/26 05:34:00;;;;;;;143.67;71.73;;;6.30;99.90;;;;;;4917634;29;20331;-63
2022/03/26 05:36:28;;;;;;;137.13;73.63;;;6.30;99.90;;;;;;4906340;29;20233;-63
2022/03/26 05:38:56;;;;;;;122.50;65.83;;;6.30;99.90;;;;;;4916405;29;20645;-63
2022/03/26 05:41:24;;;;;;;114.43;59.97;;;6.50;99.90;;;;;;4916620;29;20236;-63
2022/03/26 05:43:52;;;;;;;145.57;74.73;;;6.60;99.90;;;;;;4914961;29;20237;-64
2022/03/26 05:46:22;;;;;;;142.83;71.20;;;6.50;99.90;;;;;;4916630;29;20244;-64
2022/03/26 05:48:50;;;;;;;140.70;72.50;;;6.40;99.90;;;;;;4917398;29;20240;-63
2022/03/26 05:51:18;;;;;;;138.50;70.43;;;6.50;99.90;;;;;;4916691;29;20323;-64
2022/03/26 05:53:47;;;;;;;132.73;68.10;;;6.60;99.90;;;;;;4916721;29;20244;-64
2022/03/26 05:56:15;;;;;;;131.30;68.10;;;6.60;99.90;;;;;;4914391;29;20247;-64
2022/03/26 05:58:43;;;;;;;125.63;68.93;;;6.60;99.90;;;;;;4915256;29;20244;-63
2022/03/26 06:01:11;;;;;;;137.13;70.73;;;6.60;99.90;;;;;;4916374;29;20237;-64
2022/03/26 06:03:41;;;;;;;132.57;70.00;;;6.70;99.90;;;;;;4917091;29;20335;-64
2022/03/26 06:06:09;;;;;;;127.50;67.33;;;6.70;99.90;;;;;;4916181;29;20244;-64
2022/03/26 06:08:37;;;;;;;127.93;69.10;;;6.80;99.90;;;;;;4916862;29;20241;-63
2022/03/26 06:11:05;;;;;;;131.97;67.90;;;6.90;99.90;;;;;;4916119;29;20238;-63
2022/03/26 06:13:33;;;;;;;129.93;68.73;;;6.90;99.90;;;;;;4916961;29;20240;-63
2022/03/26 06:16:02;;;;;;;129.27;69.13;;;7.00;99.90;;;;;;4916113;29;20597;-63
2022/03/26 06:18:30;;;;;;;134.40;68.60;;;7.00;99.90;;;;;;4915581;29;20244;-64
2022/03/26 06:21:00;;;;;;;122.50;66.77;;;7.20;99.90;;;;;;4916078;29;20769;-63
2022/03/26 06:23:28;;;;;;;128.60;64.43;;;7.20;99.90;;;;;;4915804;29;20732;-63
2022/03/26 06:25:56;;;;;;;121.53;66.40;;;7.40;99.90;;;;;;4913638;29;20621;-63
2022/03/26 06:28:25;;;;;;;128.33;69.10;;;7.50;99.90;;;;;;4916228;29;20236;-63
2022/03/26 06:30:53;;;;;;;120.50;65.97;;;7.60;99.90;;;;;;4916275;29;20237;-63
2022/03/26 06:33:22;;;;;;;125.53;66.00;;;7.80;99.90;;;;;;4916789;29;20320;-63
2022/03/26 06:35:50;;;;;;;115.13;62.93;;;7.90;99.90;;;;;;4929918;29;20264;-63
2022/03/26 06:38:20;;;;;;;121.77;66.30;;;8.10;99.90;;;;;;4927573;29;20761;-64
2022/03/26 06:40:49;;;;;;;126.50;67.60;;;8.10;99.90;;;;;;4915898;29;20237;-63
2022/03/26 06:43:17;;;;;;;124.90;66.37;;;8.20;99.90;;;;;;4916629;29;20240;-64
2022/03/26 06:45:45;;;;;;;117.77;66.43;;;8.30;99.90;;;;;;4919198;29;20243;-63
2022/03/26 06:48:13;;;;;;;118.17;65.37;;;8.40;99.90;;;;;;4925495;29;20248;-63
2022/03/26 06:50:42;;;;;;;120.27;64.13;;;8.60;99.90;;;;;;4918778;29;20697;-64
2022/03/26 06:53:10;;;;;;;118.77;64.93;;;8.70;99.90;;;;;;4931349;29;20242;-64
2022/03/26 06:55:39;;;;;;;113.70;63.33;;;8.80;99.90;;;;;;4923338;29;20241;-63
2022/03/26 06:58:07;;;;;;;114.40;63.83;;;9.00;99.90;;;;;;4921825;29;20260;-63
2022/03/26 07:00:40;;;;;;;113.90;63.97;;;9.20;99.90;;;;;;4923314;29;20250;-63
2022/03/26 07:03:10;;;;;;;114.80;61.83;;;9.20;99.90;;;;;;4925165;29;20247;-64
2022/03/26 07:05:38;;;;;;;110.70;61.57;;;9.40;99.90;;;;;;4917592;29;20314;-64
2022/03/26 07:08:07;;;;;;;107.97;61.23;;;9.60;99.90;;;;;;4915780;29;20750;-63
2022/03/26 07:10:36;;;;;;;105.53;60.23;;;9.70;99.90;;;;;;4917182;29;20265;-63
2022/03/26 07:13:06;;;;;;;107.07;61.23;;;9.90;99.90;;;;;;4914748;29;20259;-63
2022/03/26 07:15:34;;;;;;;103.57;60.00;;;10.10;99.90;;;;;;4914571;29;20634;-63
2022/03/26 07:18:04;;;;;;;98.73;59.07;;;10.20;99.90;;;;;;4909639;29;20245;-64
2022/03/26 07:20:33;;;;;;;93.60;55.93;;;10.40;99.90;;;;;;4908451;29;20241;-64
2022/03/26 07:23:02;;;;;;;102.47;58.33;;;10.50;99.90;;;;;;4908716;29;20233;-64
2022/03/26 07:25:30;;;;;;;91.93;55.50;;;10.60;99.90;;;;;;4909642;29;20718;-63
2022/03/26 07:27:58;;;;;;;99.47;57.60;;;10.80;99.90;;;;;;4909339;29;20244;-63
2022/03/26 07:30:28;;;;;;;85.57;52.53;;;11.00;99.90;;;;;;4909220;29;20736;-64
2022/03/26 07:32:56;;;;;;;91.07;54.60;;;11.00;99.90;;;;;;4907975;29;20722;-63
2022/03/26 07:35:24;;;;;;;83.17;50.73;;;11.20;99.90;;;;;;4908902;29;20243;-64
2022/03/26 07:37:53;;;;;;;85.80;52.13;;;11.20;99.90;;;;;;4909392;29;20731;-63
2022/03/26 07:40:21;;;;;;;86.90;53.00;;;11.50;99.90;;;;;;4909292;29;20753;-63
2022/03/26 07:42:49;;;;;;;78.30;50.00;;;11.80;99.90;;;;;;4908089;29;20242;-63
2022/03/26 07:45:17;;;;;;;78.77;49.67;;;11.80;99.90;;;;;;4909526;29;20250;-64
2022/03/26 07:47:47;;;;;;;72.27;45.13;;;12.00;99.90;;;;;;4908560;29;20869;-63
2022/03/26 07:50:15;;;;;;;75.00;45.73;;;11.90;99.90;;;;;;4908822;29;20330;-64
2022/03/26 07:52:43;;;;;;;69.30;42.90;;;11.80;99.90;;;;;;4908134;29;20247;-63
2022/03/26 07:55:12;;;;;;;70.23;40.60;;;11.60;99.90;;;;;;4908467;29;20337;-63
2022/03/26 07:57:40;;;;;;;60.23;38.47;;;11.50;99.90;;;;;;4908876;29;20763;-63
2022/03/26 08:00:09;;;;;;;60.43;38.50;;;11.40;99.90;;;;;;4909618;29;20251;-63
2022/03/26 08:02:40;;;;;;;59.63;38.30;;;11.40;99.90;;;;;;4907740;29;20251;-63
2022/03/26 08:05:10;;;;;;;64.37;38.53;;;11.60;99.90;;;;;;4908781;29;20611;-63
2022/03/26 08:07:38;;;;;;;61.47;38.37;;;11.70;99.90;;;;;;4908476;29;25652;-64
2022/03/26 08:10:07;;;;;;;55.50;36.10;;;12.00;99.90;;;;;;4908522;29;20856;-63
2022/03/26 08:12:35;;;;;;;50.60;35.73;;;12.10;99.90;;;;;;4907060;29;20595;-64
2022/03/26 08:15:04;;;;;;;55.10;36.23;;;12.30;99.90;;;;;;4907439;29;20248;-63
2022/03/26 08:17:32;;;;;;;56.10;34.93;;;12.60;99.90;;;;;;4907889;29;20244;-63
2022/03/26 08:20:00;;;;;;;52.87;35.73;;;13.10;99.90;;;;;;4909191;29;20251;-63
2022/03/26 08:22:30;;;;;;;51.60;34.30;;;12.90;99.90;;;;;;4907542;29;20243;-63
2022/03/26 08:24:58;;;;;;;51.07;35.60;;;12.90;99.90;;;;;;4906934;29;20263;-63
2022/03/26 08:27:26;;;;;;;47.87;32.47;;;13.20;99.90;;;;;;4907583;29;20822;-63
2022/03/26 08:29:54;;;;;;;50.50;32.07;;;13.40;99.90;;;;;;4908513;29;20248;-63
2022/03/26 08:32:22;;;;;;;42.30;29.80;;;13.10;99.90;;;;;;4914729;29;20278;-63
2022/03/26 08:34:50;;;;;;;35.77;25.27;;;13.10;99.90;;;;;;4918418;29;20243;-63
2022/03/26 08:37:18;;;;;;;36.13;24.10;;;12.90;99.90;;;;;;4917397;29;20238;-63
2022/03/26 08:39:48;;;;;;;35.27;22.80;;;12.80;99.90;;;;;;4914185;29;20235;-63
2022/03/26 08:42:16;;;;;;;34.70;21.40;;;12.70;99.90;;;;;;4916611;29;20607;-63
2022/03/26 08:44:45;;;;;;;31.30;21.70;;;12.50;99.90;;;;;;4915763;29;20606;-63
2022/03/26 08:47:14;;;;;;;32.47;21.83;;;12.50;99.90;;;;;;4911070;29;20244;-63
2022/03/26 08:49:45;;;;;;;29.00;20.87;;;12.70;99.90;;;;;;4917703;29;20246;-63
2022/03/26 08:52:17;;;;;;;25.73;17.30;;;12.90;99.90;;;;;;4928294;29;20649;-63
2022/03/26 08:54:51;;;;;;;25.57;17.70;;;12.80;99.90;;;;;;4916278;29;20253;-64
2022/03/26 08:57:23;;;;;;;25.93;16.83;;;12.80;99.90;;;;;;4909011;29;20274;-63
2022/03/26 08:59:53;;;;;;;22.10;16.17;;;12.90;99.90;;;;;;4909975;29;20244;-63
2022/03/26 09:02:22;;;;;;;23.73;15.50;;;12.90;99.90;;;;;;4907219;29;20673;-63
2022/03/26 09:04:52;;;;;;;22.23;16.00;;;12.80;99.90;;;;;;4907907;29;20236;-63
2022/03/26 09:07:21;;;;;;;25.43;15.73;;;12.60;99.90;;;;;;4909053;29;20354;-63
2022/03/26 09:09:51;;;;;;;21.73;15.10;;;12.60;99.90;;;;;;4925204;29;20243;-63
2022/03/26 09:12:19;;;;;;;20.27;14.77;;;12.80;99.90;;;;;;4933070;29;20252;-63
2022/03/26 09:14:47;;;;;;;20.60;14.90;;;12.90;99.90;;;;;;4932956;29;20298;-63
2022/03/26 09:17:15;;;;;;;25.97;17.20;;;13.00;99.90;;;;;;4933011;29;20243;-63
2022/03/26 09:19:44;;;;;;;22.40;15.20;;;13.10;99.90;;;;;;4932410;29;20313;-63
2022/03/26 09:22:12;;;;;;;19.47;14.50;;;13.40;99.90;;;;;;4914134;29;20246;-63
2022/03/26 09:24:40;;;;;;;19.27;12.90;;;13.40;99.90;;;;;;4913628;29;20647;-63
2022/03/26 09:27:10;;;;;;;19.03;12.57;;;13.50;99.90;;;;;;4913737;29;20272;-63
2022/03/26 09:29:38;;;;;;;15.70;11.30;;;13.50;99.90;;;;;;4923557;29;20247;-63
2022/03/26 09:32:07;;;;;;;13.60;10.57;;;13.40;99.90;;;;;;4932652;29;20311;-63
2022/03/26 09:34:36;;;;;;;10.60;9.50;;;13.60;99.90;;;;;;4925523;29;20241;-63
2022/03/26 09:37:05;;;;;;;11.87;9.03;;;13.60;99.90;;;;;;4917381;29;20239;-63
2022/03/26 09:39:33;;;;;;;10.37;7.60;;;13.60;99.90;;;;;;4916943;29;20328;-63
2022/03/26 09:42:03;;;;;;;11.90;7.83;;;13.60;99.90;;;;;;4917205;29;20310;-62
2022/03/26 09:44:33;;;;;;;10.47;7.83;;;13.40;99.90;;;;;;4926145;29;20321;-63
2022/03/26 09:47:04;;;;;;;9.60;6.83;;;13.30;99.90;;;;;;4935931;29;20254;-63
2022/03/26 09:49:33;;;;;;;8.83;7.20;;;13.30;99.90;;;;;;4926297;29;20379;-62
2022/03/26 09:52:05;;;;;;;9.97;6.90;;;13.30;99.90;;;;;;4917051;29;20248;-63
2022/03/26 09:54:33;;;;;;;10.40;7.10;;;13.20;99.90;;;;;;4916483;29;20247;-62
2022/03/26 09:57:01;;;;;;;10.03;6.80;;;13.20;99.90;;;;;;4916830;29;20243;-62
2022/03/26 09:59:30;;;;;;;8.63;5.23;;;13.30;99.90;;;;;;4925668;29;20329;-63
2022/03/26 10:02:01;;;;;;;8.23;4.90;;;13.20;99.90;;;;;;4919037;29;20252;-63
2022/03/26 10:04:37;;;;;;;7.33;5.30;;;13.10;99.90;;;;;;4925262;29;20584;-63
2022/03/26 10:07:06;;;;;;;7.70;5.33;;;13.00;99.90;;;;;;4935763;29;20281;-63
2022/03/26 10:09:35;;;;;;;7.73;4.57;;;13.00;99.90;;;;;;4925664;29;20254;-63
2022/03/26 10:12:05;;;;;;;5.60;4.67;;;13.10;99.90;;;;;;4916673;29;20252;-63
2022/03/26 10:14:38;;;;;;;5.43;4.40;;;13.20;99.90;;;;;;4925850;29;20788;-62
2022/03/26 10:17:13;;;;;;;7.13;4.60;;;13.30;99.90;;;;;;4935576;29;20607;-63
2022/03/26 10:19:46;;;;;;;7.37;4.53;;;13.10;99.90;;;;;;4922457;29;20242;-63
2022/03/26 10:22:26;;;;;;;6.33;4.90;;;13.00;99.90;;;;;;4916574;29;20263;-63
2022/03/26 10:24:55;;;;;;;8.10;4.77;;;13.20;99.90;;;;;;4928507;29;20250;-63
2022/03/26 10:27:24;;;;;;;7.70;4.40;;;13.20;99.90;;;;;;4935383;29;20787;-63
2022/03/26 10:29:53;;;;;;;6.47;4.23;;;13.20;99.90;;;;;;4929090;29;20246;-63
2022/03/26 10:32:45;;;;;;;6.70;4.53;;;13.10;99.90;;;;;;4935517;29;20267;-63
2022/03/26 10:35:17;;;;;;;6.57;4.50;;;12.90;99.90;;;;;;4920529;29;20322;-62
2022/03/26 10:37:48;;;;;;;6.73;4.87;;;12.80;99.90;;;;;;4916266;29;20277;-63
2022/03/26 10:40:18;;;;;;;6.30;4.67;;;12.70;99.90;;;;;;4927982;29;20364;-63
2022/03/26 10:42:54;;;;;;;8.60;4.60;;;12.70;99.90;;;;;;4916161;29;20235;-63
2022/03/26 10:45:22;;;;;;;7.60;4.70;;;12.70;99.90;;;;;;4915374;29;20291;-63
2022/03/26 10:47:54;;;;;;;6.83;4.90;;;12.70;99.90;;;;;;4916212;29;20244;-63
2022/03/26 10:50:23;;;;;;;8.10;5.57;;;12.70;99.90;;;;;;4915951;29;20253;-63
2022/03/26 10:52:55;;;;;;;6.93;5.80;;;12.70;99.90;;;;;;4915891;29;20247;-63
2022/03/26 10:55:24;;;;;;;8.50;6.10;;;12.70;99.90;;;;;;4931872;29;20266;-63
2022/03/26 10:57:52;;;;;;;8.60;5.73;;;12.70;99.90;;;;;;4934974;29;20580;-63
2022/03/26 11:00:21;;;;;;;12.20;8.10;;;12.70;99.90;;;;;;4918958;29;20273;-64
2022/03/26 11:02:50;;;;;;;9.63;7.10;;;12.60;99.90;;;;;;4915766;29;20239;-63
2022/03/26 11:05:20;;;;;;;12.07;8.27;;;12.60;99.90;;;;;;4916322;29;20247;-63
2022/03/26 11:07:51;;;;;;;11.70;8.43;;;12.70;99.90;;;;;;4915710;29;20319;-63
2022/03/26 11:10:24;;;;;;;14.87;9.47;;;12.70;99.90;;;;;;4915077;29;20295;-63
2022/03/26 11:12:52;;;;;;;13.57;9.70;;;12.60;99.90;;;;;;4915714;29;20337;-63
2022/03/26 11:15:24;;;;;;;11.83;8.33;;;12.50;99.90;;;;;;4915582;29;20784;-63
2022/03/26 11:18:21;;;;;;;12.23;9.30;;;12.60;99.90;;;;;;4915512;29;20250;-63
2022/03/26 11:21:16;;;;;;;13.47;8.40;;;12.60;99.90;;;;;;4903174;29;20271;-63
2022/03/26 11:24:04;;;;;;;12.67;8.43;;;12.70;99.90;;;;;;4918156;29;20248;-63
2022/03/26 11:26:52;;;;;;;10.60;8.10;;;12.80;99.90;;;;;;4934070;29;20242;-63
2022/03/26 11:29:45;;;;;;;10.73;7.57;;;13.10;99.90;;;;;;4933750;29;20351;-63
2022/03/26 11:32:19;;;;;;;10.57;6.77;;;13.70;99.90;;;;;;4934283;29;20246;-63
2022/03/26 11:34:57;;;;;;;10.37;6.77;;;13.90;99.90;;;;;;4922937;29;20244;-63
2022/03/26 11:37:27;;;;;;;10.90;7.27;;;13.60;99.90;;;;;;4914927;29;20254;-63
2022/03/26 11:39:57;;;;;;;9.07;7.00;;;13.40;99.90;;;;;;4914857;29;20243;-63
2022/03/26 11:42:34;;;;;;;11.03;6.97;;;13.20;99.90;;;;;;4914315;29;20244;-63
2022/03/26 11:50:47;;;;;;;11.00;7.47;;;13.90;99.90;;;;;;4915031;29;20236;-62
2022/03/26 11:53:36;;;;;;;10.63;6.97;;;14.00;99.90;;;;;;4915117;29;20714;-63
2022/03/26 11:56:05;;;;;;;9.83;6.97;;;13.80;99.90;;;;;;4895543;29;20261;-63
2022/03/26 11:58:34;;;;;;;13.17;7.10;;;13.70;99.90;;;;;;4896867;29;20647;-62
2022/03/26 12:01:04;;;;;;;10.57;7.13;;;13.50;99.90;;;;;;4914610;29;20240;-63
2022/03/26 12:03:46;;;;;;;7.20;5.93;;;13.50;99.90;;;;;;4915864;29;20249;-63
2022/03/26 12:06:39;;;;;;;8.47;6.17;;;13.20;99.90;;;;;;4895871;29;20256;-63
2022/03/26 12:09:10;;;;;;;7.93;5.97;;;13.00;99.90;;;;;;4918627;29;20251;-63
2022/03/26 12:11:38;;;;;;;10.50;6.43;;;12.80;99.90;;;;;;4933287;29;20314;-62
2022/03/26 12:14:08;;;;;;;10.00;5.77;;;12.90;99.90;;;;;;4933363;29;20242;-62
2022/03/26 12:16:55;;;;;;;11.83;6.73;;;12.80;99.90;;;;;;4933276;29;20777;-63
2022/03/26 12:19:41;;;;;;;11.33;6.30;;;12.60;99.90;;;;;;4930889;29;20270;-63
2022/03/26 12:22:20;;;;;;;9.37;6.20;;;12.50;99.90;;;;;;4915147;29;20334;-63
2022/03/26 12:24:51;;;;;;;10.17;6.03;;;12.50;99.90;;;;;;4919157;29;20250;-64
2022/03/26 12:27:20;;;;;;;9.53;6.27;;;12.50;99.90;;;;;;4913581;29;20236;-64
2022/03/26 12:29:48;;;;;;;9.47;5.50;;;12.60;99.90;;;;;;4924996;29;20238;-63
2022/03/26 12:32:18;;;;;;;10.87;6.03;;;12.50;99.90;;;;;;4924151;29;20716;-63
2022/03/26 12:34:54;;;;;;;8.87;5.77;;;12.40;99.90;;;;;;4933027;29;20251;-64
2022/03/26 12:37:24;;;;;;;8.03;4.80;;;12.30;99.90;;;;;;4933117;29;20251;-63
2022/03/26 12:39:53;;;;;;;8.53;5.20;;;12.30;99.90;;;;;;4921116;29;20248;-63
2022/03/26 12:42:23;;;;;;;10.10;5.50;;;12.20;99.90;;;;;;4913281;29;20252;-63
2022/03/26 12:44:52;;;;;;;9.40;5.30;;;12.20;99.90;;;;;;4925939;29;20246;-64
2022/03/26 12:47:22;;;;;;;9.87;5.80;;;12.20;99.90;;;;;;4933151;29;20284;-63
2022/03/26 12:49:54;;;;;;;8.77;5.30;;;12.20;99.90;;;;;;4932922;29;20690;-63
2022/03/26 12:52:25;;;;;;;6.83;4.47;;;12.10;99.90;;;;;;4932981;29;20352;-63